createdAt,value
2023-05-13T00:03:51.392Z,15.19
2023-05-13T00:07:51.586Z,15.26
2023-05-13T00:11:51.784Z,14.99
2023-05-13T00:15:52.273Z,14.74
2023-05-13T00:19:55.062Z,14.70
2023-05-13T00:23:55.369Z,14.67
2023-05-13T00:27:55.502Z,14.72
2023-05-13T00:31:55.740Z,14.56
2023-05-13T00:35:58.580Z,14.49
2023-05-13T00:39:58.845Z,14.43
2023-05-13T00:44:00.106Z,14.41
2023-05-13T00:48:01.491Z,14.27
2023-05-13T00:52:05.365Z,14.51
2023-05-13T00:56:05.565Z,14.27
2023-05-13T01:00:08.311Z,14.41
2023-05-13T01:04:23.719Z,14.27
2023-05-13T01:08:40.635Z,14.22
2023-05-13T01:12:48.421Z,14.26
2023-05-13T01:16:55.074Z,14.23
2023-05-13T01:20:56.853Z,14.54
2023-05-13T01:25:00.006Z,14.83
2023-05-13T01:29:00.756Z,14.93
2023-05-13T01:33:02.457Z,14.86
2023-05-13T01:37:05.399Z,15.11
2023-05-13T01:41:08.947Z,15.25
2023-05-13T01:45:12.804Z,15.25
2023-05-13T01:49:13.586Z,15.09
2023-05-13T01:53:14.072Z,15.30
2023-05-13T01:57:17.218Z,15.44
2023-05-13T02:01:17.889Z,15.48
2023-05-13T02:05:19.298Z,15.59
2023-05-13T02:09:19.926Z,15.57
2023-05-13T02:13:22.715Z,15.64
2023-05-13T02:17:23.070Z,15.63
2023-05-13T02:21:23.399Z,15.58
2023-05-13T02:25:23.975Z,15.57
2023-05-13T02:29:26.882Z,15.66
2023-05-13T02:33:27.328Z,15.76
2023-05-13T02:37:28.048Z,15.66
2023-05-13T02:41:34.689Z,15.88
2023-05-13T02:45:37.514Z,15.33
2023-05-13T02:49:38.448Z,15.93
2023-05-13T02:53:39.878Z,16.05
2023-05-13T02:57:42.576Z,16.15
2023-05-13T03:01:45.517Z,16.02
2023-05-13T03:05:45.818Z,15.92
2023-05-13T03:09:46.120Z,15.70
2023-05-13T03:13:46.438Z,16.32
2023-05-13T03:17:50.557Z,16.30
2023-05-13T03:21:53.806Z,16.26
2023-05-13T03:25:54.252Z,16.40
2023-05-13T03:29:54.598Z,16.45
2023-05-13T03:33:58.565Z,16.73
2023-05-13T03:37:58.898Z,16.59
2023-05-13T03:41:59.609Z,17.00
2023-05-13T03:46:00.054Z,17.05
2023-05-13T03:50:04.667Z,17.18
2023-05-13T03:54:11.755Z,17.13
2023-05-13T03:58:19.299Z,17.28
2023-05-13T04:02:21.989Z,17.25
2023-05-13T04:06:24.914Z,17.31
2023-05-13T04:10:25.142Z,17.21
2023-05-13T04:14:25.372Z,17.31
2023-05-13T04:18:25.590Z,17.49
2023-05-13T04:22:28.459Z,17.61
2023-05-13T04:26:28.862Z,17.58
2023-05-13T04:30:29.264Z,17.90
2023-05-13T04:34:30.593Z,18.20
2023-05-13T04:38:34.614Z,17.77
2023-05-13T04:42:35.933Z,17.85
2023-05-13T04:46:38.436Z,17.90
2023-05-13T04:50:38.889Z,17.81
2023-05-13T04:54:42.850Z,17.68
2023-05-13T04:58:44.131Z,17.80
2023-05-13T05:02:47.641Z,17.86
2023-05-13T05:06:49.601Z,18.00
2023-05-13T05:10:53.826Z,17.97
2023-05-13T05:14:54.384Z,18.14
2023-05-13T05:18:54.776Z,18.24
2023-05-13T05:22:56.181Z,18.27
2023-05-13T05:27:02.387Z,18.26
2023-05-13T05:31:03.314Z,18.34
2023-05-13T05:35:05.446Z,18.62
2023-05-13T05:39:07.025Z,18.00
2023-05-13T05:43:13.873Z,18.74
2023-05-13T05:47:14.812Z,18.69
2023-05-13T05:51:15.084Z,18.95
2023-05-13T05:55:15.401Z,18.84
2023-05-13T05:59:18.352Z,19.25
2023-05-13T06:03:19.013Z,19.23
2023-05-13T06:07:19.508Z,19.20
2023-05-13T06:11:20.117Z,18.80
2023-05-13T06:15:23.024Z,18.87
2023-05-13T06:19:23.998Z,18.55
2023-05-13T06:23:25.090Z,19.03
2023-05-13T06:27:25.630Z,19.44
2023-05-13T06:31:29.237Z,19.55
2023-05-13T06:35:30.726Z,19.54
2023-05-13T06:39:31.755Z,19.11
2023-05-13T06:43:32.162Z,19.57
2023-05-13T06:47:42.579Z,19.53
2023-05-13T06:51:44.381Z,19.83
2023-05-13T06:55:45.069Z,19.89
2023-05-13T06:59:47.923Z,19.67
2023-05-13T07:03:51.755Z,19.92
2023-05-13T07:07:53.875Z,19.28
2023-05-13T07:11:54.414Z,19.44
2023-05-13T07:15:54.982Z,19.28
2023-05-13T07:19:58.012Z,19.66
2023-05-13T07:23:58.243Z,19.82
2023-05-13T07:27:58.484Z,19.91
2023-05-13T07:31:58.672Z,20.36
2023-05-13T07:36:01.533Z,20.32
2023-05-13T07:40:01.936Z,20.02
2023-05-13T07:44:02.337Z,20.19
2023-05-13T07:48:03.146Z,19.80
2023-05-13T07:52:06.218Z,19.80
2023-05-13T07:56:08.029Z,19.66
2023-05-13T08:00:10.745Z,19.54
2023-05-13T08:04:15.703Z,19.63
2023-05-13T08:08:18.679Z,20.25
2023-05-13T08:12:18.929Z,20.73
2023-05-13T08:16:19.184Z,20.52
2023-05-13T08:20:19.625Z,21.30
2023-05-13T08:24:22.421Z,21.33
2023-05-13T08:28:22.769Z,20.77
2023-05-13T08:32:23.153Z,20.68
2023-05-13T08:36:26.188Z,20.85
2023-05-13T08:40:29.499Z,20.88
2023-05-13T08:44:35.651Z,20.95
2023-05-13T08:48:39.945Z,20.40
2023-05-13T08:52:41.498Z,20.67
2023-05-13T08:56:53.956Z,20.08
2023-05-13T09:01:01.936Z,20.23
2023-05-13T09:05:12.056Z,20.22
2023-05-13T09:09:13.509Z,19.87
2023-05-13T09:13:21.295Z,20.16
2023-05-13T09:17:22.333Z,20.22
2023-05-13T09:21:28.301Z,20.21
2023-05-13T09:25:30.841Z,20.56
2023-05-13T09:29:33.736Z,20.35
2023-05-13T09:33:34.384Z,20.47
2023-05-13T09:37:34.734Z,20.59
2023-05-13T09:41:35.378Z,20.90
2023-05-13T09:45:39.374Z,21.03
2023-05-13T09:49:40.182Z,21.27
2023-05-13T09:53:40.492Z,21.50
2023-05-13T09:57:42.656Z,21.68
2023-05-13T10:01:48.264Z,21.44
2023-05-13T10:05:48.978Z,21.19
2023-05-13T10:09:50.431Z,21.81
2023-05-13T10:13:59.113Z,21.69
2023-05-13T10:18:05.274Z,21.56
2023-05-13T10:22:08.397Z,21.00
2023-05-13T10:26:10.049Z,21.22
2023-05-13T10:30:12.417Z,21.28
2023-05-13T10:34:16.406Z,21.27
2023-05-13T10:38:27.289Z,21.45
2023-05-13T10:42:46.302Z,21.43
2023-05-13T10:46:47.075Z,21.14
2023-05-13T10:50:59.725Z,22.00
2023-05-13T10:55:05.407Z,22.00
2023-05-13T10:59:08.285Z,22.48
2023-05-13T11:03:18.405Z,22.14
2023-05-13T11:07:21.484Z,22.51
2023-05-13T11:11:37.802Z,22.44
2023-05-13T11:15:47.911Z,22.04
2023-05-13T11:19:50.192Z,22.32
2023-05-13T11:24:00.249Z,22.22
2023-05-13T11:28:01.542Z,22.83
2023-05-13T11:32:03.327Z,23.36
2023-05-13T11:36:04.983Z,23.78
2023-05-13T11:40:11.209Z,24.14
2023-05-13T11:44:12.338Z,24.24
2023-05-13T11:48:26.207Z,25.03
2023-05-13T11:52:26.540Z,25.06
2023-05-13T11:56:33.130Z,25.81
2023-05-13T12:00:35.747Z,26.58
2023-05-13T12:04:36.305Z,26.44
2023-05-13T12:08:36.805Z,25.84
2023-05-13T12:12:43.374Z,26.17
2023-05-13T12:16:44.105Z,25.51
2023-05-13T12:20:45.003Z,25.52
2023-05-13T12:24:45.277Z,24.98
2023-05-13T12:28:48.167Z,24.91
2023-05-13T12:32:48.538Z,25.03
2023-05-13T12:36:48.777Z,24.75
2023-05-13T12:40:50.261Z,24.70
2023-05-13T12:44:53.371Z,24.58
2023-05-13T12:48:59.039Z,23.87
2023-05-13T12:53:00.816Z,23.94
2023-05-13T12:57:01.322Z,24.20
2023-05-13T13:01:04.450Z,23.89
2023-05-13T13:05:05.538Z,24.76
2023-05-13T13:09:06.225Z,25.60
2023-05-13T13:13:06.629Z,26.33
2023-05-13T13:17:09.997Z,27.59
2023-05-13T13:21:10.487Z,28.42
2023-05-13T13:25:11.552Z,29.40
2023-05-13T13:29:11.971Z,30.15
2023-05-13T13:33:15.967Z,29.36
2023-05-13T13:37:16.312Z,28.69
2023-05-13T13:41:16.656Z,29.14
2023-05-13T13:45:17.215Z,30.30
2023-05-13T13:49:23.991Z,30.19
2023-05-13T13:53:24.895Z,29.84
2023-05-13T13:57:25.288Z,28.26
2023-05-13T14:01:25.961Z,28.74
2023-05-13T14:05:29.505Z,29.25
2023-05-13T14:09:29.848Z,30.37
2023-05-13T14:13:30.065Z,28.58
2023-05-13T14:17:30.545Z,27.36
2023-05-13T14:21:35.139Z,26.61
2023-05-13T14:25:35.536Z,27.62
2023-05-13T14:29:36.138Z,26.36
2023-05-13T14:33:36.452Z,26.48
2023-05-13T14:37:39.508Z,25.61
2023-05-13T14:41:41.125Z,24.75
2023-05-13T14:45:41.399Z,24.40
2023-05-13T14:49:42.824Z,23.66
2023-05-13T14:53:45.971Z,23.66
2023-05-13T14:57:46.625Z,24.11
2023-05-13T15:01:46.981Z,24.50
2023-05-13T15:05:50.446Z,25.00
2023-05-13T15:09:53.338Z,24.31
2023-05-13T15:13:53.709Z,23.83
2023-05-13T15:17:54.938Z,24.18
2023-05-13T15:21:55.600Z,23.90
2023-05-13T15:25:58.524Z,23.61
2023-05-13T15:29:59.003Z,24.11
2023-05-13T15:33:59.667Z,24.54
2023-05-13T15:38:00.282Z,24.35
2023-05-13T15:42:03.144Z,24.31
2023-05-13T15:46:03.732Z,24.35
2023-05-13T15:50:04.167Z,24.79
2023-05-13T15:54:04.500Z,25.36
2023-05-13T15:58:10.104Z,24.70
2023-05-13T16:02:10.473Z,24.81
2023-05-13T16:06:10.826Z,24.55
2023-05-13T16:10:11.869Z,24.49
2023-05-13T16:14:14.850Z,24.16
2023-05-13T16:18:15.255Z,23.60
2023-05-13T16:22:31.030Z,23.42
2023-05-13T16:26:31.419Z,23.18
2023-05-13T16:30:34.756Z,23.57
2023-05-13T16:34:35.075Z,23.84
2023-05-13T16:38:35.853Z,23.32
2023-05-13T16:42:36.122Z,22.52
2023-05-13T16:46:44.074Z,22.66
2023-05-13T16:50:44.644Z,22.66
2023-05-13T16:54:45.216Z,22.34
2023-05-13T16:58:45.597Z,22.56
2023-05-13T17:02:48.884Z,22.37
2023-05-13T17:06:49.562Z,22.37
2023-05-13T17:10:49.951Z,22.43
2023-05-13T17:14:50.904Z,22.18
2023-05-13T17:18:54.128Z,22.06
2023-05-13T17:22:54.929Z,22.23
2023-05-13T17:26:56.017Z,22.02
2023-05-13T17:30:56.674Z,21.81
2023-05-13T17:35:00.176Z,21.59
2023-05-13T17:39:00.747Z,21.59
2023-05-13T17:43:03.614Z,21.86
2023-05-13T17:47:04.655Z,21.81
2023-05-13T17:51:07.998Z,20.90
2023-05-13T17:55:10.094Z,21.63
2023-05-13T17:59:10.556Z,21.49
2023-05-13T18:03:10.875Z,21.86
2023-05-13T18:07:13.778Z,21.83
2023-05-13T18:11:13.995Z,21.78
2023-05-13T18:15:14.571Z,21.77
2023-05-13T18:19:14.964Z,21.46
2023-05-13T18:23:18.106Z,21.58
2023-05-13T18:27:18.450Z,21.65
2023-05-13T18:31:19.125Z,21.32
2023-05-13T18:35:21.748Z,20.80
2023-05-13T18:39:24.735Z,21.22
2023-05-13T18:43:25.021Z,21.17
2023-05-13T18:47:25.519Z,21.02
2023-05-13T18:51:25.897Z,21.10
2023-05-13T18:55:28.696Z,21.08
2023-05-13T18:59:29.908Z,20.93
2023-05-13T19:03:30.900Z,20.52
2023-05-13T19:07:31.200Z,20.36
2023-05-13T19:11:34.307Z,20.31
2023-05-13T19:15:34.675Z,20.38
2023-05-13T19:19:34.881Z,20.26
2023-05-13T19:23:35.111Z,20.20
2023-05-13T19:27:39.312Z,20.27
2023-05-13T19:31:40.178Z,19.90
2023-05-13T19:35:40.583Z,19.58
2023-05-13T19:39:40.788Z,19.39
2023-05-13T19:43:43.524Z,19.37
2023-05-13T19:47:43.789Z,19.34
2023-05-13T19:51:44.216Z,19.37
2023-05-13T19:55:44.428Z,19.19
2023-05-13T19:59:47.281Z,19.18
2023-05-13T20:03:47.634Z,19.22
2023-05-13T20:07:47.972Z,19.13
2023-05-13T20:11:48.183Z,19.03
2023-05-13T20:15:50.941Z,18.74
2023-05-13T20:19:54.011Z,18.65
2023-05-13T20:23:54.196Z,18.52
2023-05-13T20:27:54.899Z,18.21
2023-05-13T20:31:57.692Z,18.28
2023-05-13T20:35:58.636Z,18.17
2023-05-13T20:39:58.838Z,18.01
2023-05-13T20:43:59.023Z,17.91
2023-05-13T20:48:01.920Z,17.94
2023-05-13T20:52:09.154Z,17.90
2023-05-13T20:56:10.602Z,17.90
2023-05-13T21:00:13.800Z,17.48
2023-05-13T21:04:17.481Z,17.57
2023-05-13T21:08:19.176Z,17.83
2023-05-13T21:12:19.399Z,17.84
2023-05-13T21:16:19.694Z,17.83
2023-05-13T21:20:23.293Z,17.98
2023-05-13T21:24:23.695Z,18.16
2023-05-13T21:28:26.242Z,18.16
2023-05-13T21:32:26.660Z,18.06
2023-05-13T21:36:29.562Z,17.72
2023-05-13T21:40:29.781Z,17.80
2023-05-13T21:44:30.648Z,17.90
2023-05-13T21:48:30.933Z,17.90
2023-05-13T21:52:33.763Z,17.91
2023-05-13T21:56:34.034Z,18.00
2023-05-13T22:00:34.813Z,18.14
2023-05-13T22:04:35.161Z,18.07
2023-05-13T22:08:38.093Z,17.99
2023-05-13T22:12:38.912Z,18.10
2023-05-13T22:16:39.200Z,18.18
2023-05-13T22:20:39.560Z,18.23
2023-05-13T22:24:42.430Z,18.21
2023-05-13T22:28:42.822Z,18.44
2023-05-13T22:32:43.171Z,18.04
2023-05-13T22:36:44.029Z,18.34
2023-05-13T22:40:46.878Z,18.17
2023-05-13T22:44:47.141Z,18.08
2023-05-13T22:48:47.366Z,17.90
2023-05-13T22:52:47.709Z,17.74
2023-05-13T22:56:51.177Z,17.64
2023-05-13T23:00:52.077Z,17.52
2023-05-13T23:04:52.326Z,17.73
2023-05-13T23:08:52.494Z,17.82
2023-05-13T23:12:56.637Z,17.72
2023-05-13T23:16:56.905Z,18.01
2023-05-13T23:20:58.521Z,18.00
2023-05-13T23:24:58.688Z,17.93
2023-05-13T23:29:01.678Z,18.01
2023-05-13T23:33:02.174Z,17.99
2023-05-13T23:37:02.508Z,17.97
2023-05-13T23:41:02.798Z,18.04
2023-05-13T23:45:05.819Z,17.97
2023-05-13T23:49:06.171Z,18.06
2023-05-13T23:53:06.482Z,18.05
2023-05-13T23:57:06.953Z,18.00
